Time;durP1;ratioP1;P1;durP2;ratioP2;P2;SDS_P1;SDS_P2;PMS_P1;PMS_P2;Temp;Humidity;BMP_temperature;BMP_pressure;BME280_temperature;BME280_humidity;BME280_pressure;Samples;Min_cycle;Max_cycle;Signal;HPM_P1;HPM_P2
2023/11/05 00:02:08;;;;;;;;;;;;;;;8.94;100.00;98439.03;5031120;28;19983;-71
2023/11/05 00:04:33;;;;;;;;;;;;;;;8.88;100.00;98445.19;5029957;28;19917;-72
2023/11/05 00:06:58;;;;;;;;;;;;;;;8.85;100.00;98447.50;5029949;28;19917;-72
2023/11/05 00:09:25;;;;;;;;;;;;;;;8.95;100.00;98446.22;5029354;28;19917;-72
2023/11/05 00:11:50;;;;;;;;;;;;;;;8.99;100.00;98446.34;5030156;28;20449;-72
2023/11/05 00:14:15;;;;;;;;;;;;;;;8.88;100.00;98439.59;5029496;28;19921;-72
2023/11/05 00:16:41;;;;;;;;;;;;;;;8.98;100.00;98431.56;5031246;28;19921;-72
2023/11/05 00:19:08;;;;;;;;;;;;;;;9.08;100.00;98421.13;5029884;28;19913;-72
2023/11/05 00:21:33;;;;;;;;;;;;;;;9.27;100.00;98412.94;5029890;28;19913;-72
2023/11/05 00:23:59;;;;;;;;;;;;;;;9.45;100.00;98426.63;5025618;28;19918;-72
2023/11/05 00:26:24;;;;;;;;;;;;;;;9.48;100.00;98428.72;5028380;28;20387;-72
2023/11/05 00:28:49;;;;;;;;;;;;;;;9.57;100.00;98430.53;5029875;28;19920;-72
2023/11/05 00:31:15;;;;;;;;;;;;;;;9.49;100.00;98437.91;5029875;28;19913;-72
2023/11/05 00:33:40;;;;;;;;;;;;;;;9.45;100.00;98446.16;5029799;28;19917;-72
2023/11/05 00:36:06;;;;;;;;;;;;;;;9.52;100.00;98453.94;5032159;28;19983;-72
2023/11/05 00:38:31;;;;;;;;;;;;;;;9.57;100.00;98452.88;5034691;28;19917;-72
2023/11/05 00:40:56;;;;;;;;;;;;;;;9.59;100.00;98451.38;5033973;28;19925;-72
2023/11/05 00:43:22;;;;;;;;;;;;;;;9.37;100.00;98445.13;5029520;28;19991;-72
2023/11/05 00:45:47;;;;;;;;;;;;;;;9.44;100.00;98452.91;5024766;28;19925;-72
2023/11/05 00:48:13;;;;;;;;;;;;;;;9.44;100.00;98460.47;5033106;28;19913;-72
2023/11/05 00:50:38;;;;;;;;;;;;;;;9.26;100.00;98461.56;5034439;28;19967;-72
2023/11/05 00:53:03;;;;;;;;;;;;;;;9.12;100.00;98464.69;5032437;28;19924;-72
2023/11/05 00:55:29;;;;;;;;;;;;;;;9.26;100.00;98458.78;5031700;28;19921;-72
2023/11/05 00:57:55;;;;;;;;;;;;;;;9.11;100.00;98456.66;5033131;28;19976;-72
2023/11/05 01:00:20;;;;;;;;;;;;;;;8.82;100.00;98441.81;5031896;28;19917;-72
2023/11/05 01:02:46;;;;;;;;;;;;;;;8.84;100.00;98433.91;5033862;28;19939;-72
2023/11/05 01:05:11;;;;;;;;;;;;;;;8.82;100.00;98425.91;5034033;28;19929;-72
2023/11/05 01:07:37;;;;;;;;;;;;;;;8.76;100.00;98426.50;5034236;28;20015;-72
2023/11/05 01:10:03;;;;;;;;;;;;;;;8.81;100.00;98427.06;5033157;28;20302;-72
2023/11/05 01:12:28;;;;;;;;;;;;;;;8.77;100.00;98406.59;5032886;28;19957;-72
2023/11/05 01:14:57;;;;;;;;;;;;;;;8.79;100.00;98415.44;5032749;28;19933;-72
2023/11/05 01:17:22;;;;;;;;;;;;;;;8.77;100.00;98423.34;5029975;28;19921;-72
2023/11/05 01:19:48;;;;;;;;;;;;;;;8.86;100.00;98431.59;5033683;28;20399;-72
2023/11/05 01:22:13;;;;;;;;;;;;;;;8.96;100.00;98416.38;5032431;28;19921;-72
2023/11/05 01:24:39;;;;;;;;;;;;;;;8.84;100.00;98395.69;5032528;28;19913;-72
2023/11/05 01:27:04;;;;;;;;;;;;;;;8.83;100.00;98382.91;5032519;28;19917;-72
2023/11/05 01:29:30;;;;;;;;;;;;;;;8.75;100.00;98374.66;5033408;28;20039;-72
2023/11/05 01:31:55;;;;;;;;;;;;;;;8.57;100.00;98386.06;5030805;28;20032;-72
2023/11/05 01:34:21;;;;;;;;;;;;;;;8.57;100.00;98391.63;5031855;28;20319;-72
2023/11/05 01:36:46;;;;;;;;;;;;;;;8.67;100.00;98385.59;5033709;28;20310;-72
2023/11/05 01:39:12;;;;;;;;;;;;;;;8.59;100.00;98386.50;5033383;28;20370;-72
2023/11/05 01:41:37;;;;;;;;;;;;;;;8.60;100.00;98385.34;5032365;28;20423;-72
2023/11/05 01:44:02;;;;;;;;;;;;;;;8.77;100.00;98386.31;5033489;28;19921;-71
2023/11/05 01:46:28;;;;;;;;;;;;;;;8.52;100.00;98391.88;5031717;28;19921;-72
2023/11/05 01:48:56;;;;;;;;;;;;;;;8.54;100.00;98375.63;5032077;28;19913;-72
2023/11/05 01:51:21;;;;;;;;;;;;;;;8.66;100.00;98378.41;5013526;28;19968;-72
2023/11/05 01:53:50;;;;;;;;;;;;;;;8.69;100.00;98382.47;5012276;28;20388;-72
2023/11/05 01:56:16;;;;;;;;;;;;;;;8.66;100.00;98380.34;5027676;28;20366;-72
2023/11/05 01:58:41;;;;;;;;;;;;;;;7.85;100.00;98378.84;5032006;28;19982;-72
2023/11/05 02:01:09;;;;;;;;;;;;;;;8.12;100.00;98382.16;5030420;28;19952;-72
2023/11/05 02:03:34;;;;;;;;;;;;;;;8.13;100.00;98392.94;5033238;28;19913;-72
2023/11/05 02:06:00;;;;;;;;;;;;;;;8.43;100.00;98405.88;5030956;28;19921;-72
2023/11/05 02:08:25;;;;;;;;;;;;;;;8.45;100.00;98400.78;5031793;28;19920;-72
2023/11/05 02:10:51;;;;;;;;;;;;;;;8.36;100.00;98397.28;5032859;28;19968;-72
2023/11/05 02:13:17;;;;;;;;;;;;;;;8.48;100.00;98408.44;5033033;28;19925;-72
2023/11/05 02:15:42;;;;;;;;;;;;;;;8.46;100.00;98415.50;5030329;28;19920;-72
2023/11/05 02:18:07;;;;;;;;;;;;;;;8.46;100.00;98419.13;5031619;28;20491;-72
2023/11/05 02:20:33;;;;;;;;;;;;;;;8.45;100.00;98420.28;5031095;28;19920;-72
2023/11/05 02:23:00;;;;;;;;;;;;;;;8.20;100.00;98411.88;5032034;28;19917;-72
2023/11/05 02:25:27;;;;;;;;;;;;;;;8.22;100.00;98437.44;5032706;28;19917;-72
2023/11/05 02:27:53;;;;;;;;;;;;;;;8.12;100.00;98432.28;5031430;28;19921;-72
2023/11/05 02:30:22;;;;;;;;;;;;;;;8.03;100.00;98426.00;5030666;28;20083;-72
2023/11/05 02:32:48;;;;;;;;;;;;;;;7.64;100.00;98413.09;5030984;28;19917;-72
2023/11/05 02:35:13;;;;;;;;;;;;;;;7.93;100.00;98418.91;5031198;28;19917;-72
2023/11/05 02:37:39;;;;;;;;;;;;;;;7.83;100.00;98414.53;5031486;28;19936;-72
2023/11/05 02:40:06;;;;;;;;;;;;;;;7.93;100.00;98424.47;5027011;28;19960;-72
2023/11/05 02:42:32;;;;;;;;;;;;;;;7.97;100.00;98442.09;5024959;28;19990;-72
2023/11/05 02:44:57;;;;;;;;;;;;;;;7.66;100.00;98455.31;5026391;28;20384;-72
2023/11/05 02:47:22;;;;;;;;;;;;;;;7.76;100.00;98450.50;5031268;28;19953;-72
2023/11/05 02:49:48;;;;;;;;;;;;;;;7.82;100.00;98457.47;5031031;28;19913;-72
2023/11/05 02:52:14;;;;;;;;;;;;;;;7.72;100.00;98453.97;5032034;28;19913;-72
2023/11/05 02:54:39;;;;;;;;;;;;;;;7.66;100.00;98463.66;5026969;28;19924;-72
2023/11/05 02:57:04;;;;;;;;;;;;;;;7.93;100.00;98463.44;5010933;28;19926;-72
2023/11/05 02:59:30;;;;;;;;;;;;;;;7.77;100.00;98466.03;5012842;28;19924;-72
2023/11/05 03:01:55;;;;;;;;;;;;;;;7.86;100.00;98470.38;5022851;28;19917;-72
2023/11/05 03:04:20;;;;;;;;;;;;;;;7.13;100.00;98485.47;5011071;28;19913;-72
2023/11/05 03:06:50;;;;;;;;;;;;;;;6.80;100.00;98486.94;5024392;28;20408;-72
2023/11/05 03:09:17;;;;;;;;;;;;;;;6.87;100.00;98492.78;5030633;28;19983;-72
2023/11/05 03:11:48;;;;;;;;;;;;;;;6.71;100.00;98483.38;5029947;28;19924;-72
2023/11/05 03:14:14;;;;;;;;;;;;;;;6.86;100.00;98484.81;5031768;28;19971;-71
2023/11/05 03:16:39;;;;;;;;;;;;;;;7.00;100.00;98484.56;5031743;28;19917;-72
2023/11/05 03:19:08;;;;;;;;;;;;;;;6.56;100.00;98487.53;5031725;28;19917;-72
2023/11/05 03:21:33;;;;;;;;;;;;;;;6.30;100.00;98491.19;5030397;28;19975;-72
2023/11/05 03:23:59;;;;;;;;;;;;;;;6.42;100.00;98482.19;5030516;28;19967;-72
2023/11/05 03:26:24;;;;;;;;;;;;;;;6.53;100.00;98482.63;5029766;28;19925;-72
2023/11/05 03:28:50;;;;;;;;;;;;;;;6.81;100.00;98498.88;5030862;28;19917;-72
2023/11/05 03:31:15;;;;;;;;;;;;;;;6.28;100.00;98497.09;5030325;28;19913;-72
2023/11/05 03:33:41;;;;;;;;;;;;;;;6.40;100.00;98501.16;5031781;28;20374;-72
2023/11/05 03:36:06;;;;;;;;;;;;;;;6.50;100.00;98494.41;5030308;28;19971;-72
2023/11/05 03:38:31;;;;;;;;;;;;;;;6.39;100.00;98503.09;5031885;28;19972;-72
2023/11/05 03:40:57;;;;;;;;;;;;;;;6.27;100.00;98498.22;5026983;28;19926;-71
2023/11/05 03:43:22;;;;;;;;;;;;;;;6.65;100.00;98499.44;5011043;28;20320;-72
2023/11/05 03:45:47;;;;;;;;;;;;;;;6.90;100.00;98493.28;5030251;28;19940;-72
2023/11/05 03:48:13;;;;;;;;;;;;;;;7.03;100.00;98503.38;5029819;28;20452;-72
2023/11/05 03:50:38;;;;;;;;;;;;;;;6.63;100.00;98506.47;5030532;28;19917;-72
2023/11/05 03:53:03;;;;;;;;;;;;;;;7.09;100.00;98515.91;5030123;28;19920;-72
2023/11/05 03:55:29;;;;;;;;;;;;;;;7.27;100.00;98513.84;5030182;28;20055;-72
2023/11/05 03:57:54;;;;;;;;;;;;;;;7.16;100.00;98505.09;5029474;28;19917;-72
2023/11/05 04:00:20;;;;;;;;;;;;;;;6.93;100.00;98503.75;5028312;28;19917;-72
2023/11/05 04:02:45;;;;;;;;;;;;;;;7.03;100.00;98500.59;5030079;28;19913;-72
2023/11/05 04:05:13;;;;;;;;;;;;;;;6.90;100.00;98496.06;5028688;28;20016;-72
2023/11/05 04:07:38;;;;;;;;;;;;;;;6.91;100.00;98492.13;5030095;28;20003;-72
2023/11/05 04:10:04;;;;;;;;;;;;;;;6.88;100.00;98505.56;5030963;28;20392;-72
2023/11/05 04:12:29;;;;;;;;;;;;;;;7.10;100.00;98505.63;5034001;28;19939;-72
2023/11/05 04:14:54;;;;;;;;;;;;;;;7.35;100.00;98501.03;5026349;28;19965;-72
2023/11/05 04:17:20;;;;;;;;;;;;;;;7.19;100.00;98508.34;5015364;28;20008;-72
2023/11/05 04:19:45;;;;;;;;;;;;;;;7.27;100.00;98510.28;5020367;28;20406;-72
2023/11/05 04:22:10;;;;;;;;;;;;;;;7.10;100.00;98506.41;5032980;28;19917;-72
2023/11/05 04:24:36;;;;;;;;;;;;;;;7.38;100.00;98517.06;5013694;28;20011;-72
2023/11/05 04:27:02;;;;;;;;;;;;;;;7.46;100.00;98523.72;5029971;28;19922;-72
2023/11/05 04:29:27;;;;;;;;;;;;;;;6.92;100.00;98511.25;5013511;28;19965;-72
2023/11/05 04:31:55;;;;;;;;;;;;;;;6.92;100.00;98504.88;5014840;28;19918;-72
2023/11/05 04:34:21;;;;;;;;;;;;;;;6.95;100.00;98504.22;5019398;28;19948;-72
2023/11/05 04:36:46;;;;;;;;;;;;;;;7.11;100.00;98526.72;5034707;28;19975;-72
2023/11/05 04:39:12;;;;;;;;;;;;;;;6.95;100.00;98530.06;5033566;28;19920;-72
2023/11/05 04:41:37;;;;;;;;;;;;;;;6.88;100.00;98527.81;5033172;28;19917;-72
2023/11/05 04:44:03;;;;;;;;;;;;;;;6.96;100.00;98528.91;5033318;28;19921;-72
2023/11/05 04:46:28;;;;;;;;;;;;;;;6.98;100.00;98529.38;5026855;28;20083;-72
2023/11/05 04:48:53;;;;;;;;;;;;;;;7.21;100.00;98518.00;5032200;28;19924;-72
2023/11/05 04:51:19;;;;;;;;;;;;;;;7.26;100.00;98519.78;5034652;28;19920;-72
2023/11/05 04:53:44;;;;;;;;;;;;;;;7.27;100.00;98522.19;5033172;28;19913;-72
2023/11/05 04:56:14;;;;;;;;;;;;;;;7.32;100.00;98534.31;5032785;28;19925;-72
2023/11/05 04:58:39;;;;;;;;;;;;;;;7.40;100.00;98525.91;5032781;28;19960;-72
2023/11/05 05:01:04;;;;;;;;;;;;;;;7.21;100.00;98533.84;5033093;28;19960;-72
2023/11/05 05:03:31;;;;;;;;;;;;;;;6.93;100.00;98539.88;5031685;28;19917;-72
2023/11/05 05:05:57;;;;;;;;;;;;;;;6.34;100.00;98553.28;5033408;28;20000;-72
2023/11/05 05:08:22;;;;;;;;;;;;;;;6.48;100.00;98553.09;5032891;28;20032;-72
2023/11/05 05:10:47;;;;;;;;;;;;;;;6.75;100.00;98562.16;5033008;28;19913;-72
2023/11/05 05:13:14;;;;;;;;;;;;;;;6.63;100.00;98553.69;5032750;28;19944;-72
2023/11/05 05:15:40;;;;;;;;;;;;;;;6.58;100.00;98552.75;5032451;28;20008;-72
2023/11/05 05:18:05;;;;;;;;;;;;;;;6.39;100.00;98561.44;5031785;28;19917;-72
2023/11/05 05:20:31;;;;;;;;;;;;;;;6.08;100.00;98550.53;5032250;28;19917;-72
2023/11/05 05:22:56;;;;;;;;;;;;;;;5.84;100.00;98547.06;5031245;28;20000;-72
2023/11/05 05:25:22;;;;;;;;;;;;;;;6.11;100.00;98552.66;5032584;28;19928;-72
2023/11/05 05:27:48;;;;;;;;;;;;;;;6.07;100.00;98565.56;5032501;28;19920;-72
2023/11/05 05:30:16;;;;;;;;;;;;;;;6.40;100.00;98568.63;5032680;28;19913;-72
2023/11/05 05:32:42;;;;;;;;;;;;;;;6.53;100.00;98561.25;5031416;28;19957;-72
2023/11/05 05:35:07;;;;;;;;;;;;;;;6.29;100.00;98556.22;5031837;28;19949;-72
2023/11/05 05:37:33;;;;;;;;;;;;;;;6.75;100.00;98559.38;5015029;28;19924;-74
2023/11/05 05:39:58;;;;;;;;;;;;;;;6.85;100.00;98549.88;5013893;28;20623;-74
2023/11/05 05:42:23;;;;;;;;;;;;;;;6.88;100.00;98550.03;5012833;28;19976;-73
2023/11/05 05:44:49;;;;;;;;;;;;;;;6.90;100.00;98546.13;5014038;28;20431;-69
2023/11/05 05:47:15;;;;;;;;;;;;;;;7.10;100.00;98556.47;5013781;28;20407;-72
2023/11/05 05:49:40;;;;;;;;;;;;;;;7.14;100.00;98551.91;5019300;28;19959;-66
2023/11/05 05:52:05;;;;;;;;;;;;;;;7.02;100.00;98551.78;5033118;28;19917;-68
2023/11/05 05:54:31;;;;;;;;;;;;;;;7.34;100.00;98559.81;5030794;28;20016;-70
2023/11/05 05:56:56;;;;;;;;;;;;;;;7.52;100.00;98549.41;5033323;28;19971;-70
2023/11/05 05:59:22;;;;;;;;;;;;;;;7.71;100.00;98551.72;5032081;28;19924;-69
2023/11/05 06:01:47;;;;;;;;;;;;;;;7.58;100.00;98553.59;5018965;28;19918;-69
2023/11/05 06:04:12;;;;;;;;;;;;;;;7.62;100.00;98553.75;5028278;28;19923;-69
2023/11/05 06:06:38;;;;;;;;;;;;;;;7.51;100.00;98550.56;5030151;28;19921;-71
2023/11/05 06:09:06;;;;;;;;;;;;;;;7.87;100.00;98551.94;5026444;28;19917;-67
2023/11/05 06:11:31;;;;;;;;;;;;;;;7.92;100.00;98551.72;5024424;28;20050;-66
2023/11/05 06:13:57;;;;;;;;;;;;;;;7.95;100.00;98545.47;5029395;28;19925;-67
2023/11/05 06:16:22;;;;;;;;;;;;;;;8.12;100.00;98550.06;5029270;28;20415;-67
2023/11/05 06:18:48;;;;;;;;;;;;;;;8.40;100.00;98554.25;5026023;28;19924;-68
2023/11/05 06:21:14;;;;;;;;;;;;;;;8.47;100.00;98540.59;5024836;28;19921;-69
2023/11/05 06:23:39;;;;;;;;;;;;;;;8.65;100.00;98523.69;5029183;28;20426;-68
2023/11/05 06:26:04;;;;;;;;;;;;;;;8.66;100.00;98511.38;5024833;28;19969;-68
2023/11/05 06:28:29;;;;;;;;;;;;;;;8.73;100.00;98511.63;5012942;28;20032;-68
2023/11/05 06:30:55;;;;;;;;;;;;;;;8.87;100.00;98499.34;5021127;28;19921;-67
2023/11/05 06:33:22;;;;;;;;;;;;;;;9.11;100.00;98510.50;5027261;28;19917;-68
2023/11/05 06:35:47;;;;;;;;;;;;;;;9.35;100.00;98520.03;5027312;28;20004;-68
2023/11/05 06:38:12;;;;;;;;;;;;;;;9.36;100.00;98516.06;5027845;28;20039;-67
2023/11/05 06:40:38;;;;;;;;;;;;;;;9.36;100.00;98516.06;5019920;28;21409;-67
2023/11/05 06:43:03;;;;;;;;;;;;;;;9.67;100.00;98516.59;5025697;28;19921;-68
2023/11/05 06:45:28;;;;;;;;;;;;;;;9.93;100.00;98513.41;5029370;28;20509;-68
2023/11/05 06:47:54;;;;;;;;;;;;;;;9.77;100.00;98521.69;5022820;28;19925;-65
2023/11/05 06:50:20;;;;;;;;;;;;;;;9.86;100.00;98520.75;5028400;28;20704;-70
2023/11/05 06:52:46;;;;;;;;;;;;;;;9.85;100.00;98531.09;5029071;28;20708;-67
2023/11/05 06:55:11;;;;;;;;;;;;;;;9.82;100.00;98529.03;5029035;28;19925;-67
2023/11/05 06:57:37;;;;;;;;;;;;;;;9.40;100.00;98535.72;5026936;28;19917;-69
2023/11/05 07:00:05;;;;;;;;;;;;;;;9.67;100.00;98531.41;5028461;28;19928;-70
2023/11/05 07:02:33;;;;;;;;;;;;;;;9.86;100.00;98532.72;5027352;28;19917;-70
2023/11/05 07:04:58;;;;;;;;;;;;;;;9.54;100.00;98529.78;5028121;28;19921;-71
2023/11/05 07:07:24;;;;;;;;;;;;;;;9.54;100.00;98538.16;5027132;28;20381;-70
2023/11/05 07:09:51;;;;;;;;;;;;;;;9.45;100.00;98538.25;5029517;28;19913;-68
2023/11/05 07:12:16;;;;;;;;;;;;;;;9.18;100.00;98537.03;5024881;28;20287;-68
2023/11/05 07:14:41;;;;;;;;;;;;;;;9.19;100.00;98521.91;5027867;28;19932;-69
2023/11/05 07:17:07;;;;;;;;;;;;;;;9.43;100.00;98514.69;5027530;28;19954;-69
2023/11/05 07:19:32;;;;;;;;;;;;;;;9.34;100.00;98518.41;5026525;28;19928;-72
2023/11/05 07:21:57;;;;;;;;;;;;;;;9.20;100.00;98518.75;5025686;28;19974;-70
2023/11/05 07:24:24;;;;;;;;;;;;;;;9.17;100.00;98510.25;5026490;28;19925;-69
2023/11/05 07:26:50;;;;;;;;;;;;;;;9.49;100.00;98514.09;5027635;28;20018;-70
2023/11/05 07:29:16;;;;;;;;;;;;;;;9.68;100.00;98515.44;5022818;28;20047;-66
2023/11/05 07:31:41;;;;;;;;;;;;;;;9.77;100.00;98506.91;5023612;28;19929;-70
2023/11/05 07:34:07;;;;;;;;;;;;;;;9.75;100.00;98520.41;5025124;28;19924;-67
2023/11/05 07:36:33;;;;;;;;;;;;;;;9.73;100.00;98534.75;5026124;28;20118;-67
2023/11/05 07:38:58;;;;;;;;;;;;;;;9.71;100.00;98536.25;5025749;28;19924;-69
2023/11/05 07:41:24;;;;;;;;;;;;;;;9.81;100.00;98535.78;5025105;28;20545;-74
2023/11/05 07:43:49;;;;;;;;;;;;;;;10.13;100.00;98538.69;5026576;28;19923;-67
2023/11/05 07:46:14;;;;;;;;;;;;;;;10.32;100.00;98528.84;5031540;28;20012;-70
2023/11/05 07:48:39;;;;;;;;;;;;;;;10.16;100.00;98532.41;5022423;28;20292;-69
2023/11/05 07:51:05;;;;;;;;;;;;;;;10.44;100.00;98534.41;5029270;28;19917;-70
2023/11/05 07:53:30;;;;;;;;;;;;;;;10.51;100.00;98528.19;5031909;28;19956;-70
2023/11/05 07:55:55;;;;;;;;;;;;;;;10.61;100.00;98538.03;5024408;28;19925;-70
2023/11/05 07:58:21;;;;;;;;;;;;;;;10.52;100.00;98538.22;5026322;28;20411;-70
2023/11/05 08:00:46;;;;;;;;;;;;;;;10.69;100.00;98533.47;5030152;28;19923;-70
2023/11/05 08:03:11;;;;;;;;;;;;;;;10.69;100.00;98534.28;5025653;28;19926;-70
2023/11/05 08:05:37;;;;;;;;;;;;;;;10.92;100.00;98539.25;5027514;28;19973;-69
2023/11/05 08:08:02;;;;;;;;;;;;;;;10.90;100.00;98530.44;5031428;28;20007;-71
2023/11/05 08:10:28;;;;;;;;;;;;;;;10.94;98.82;98529.34;5026514;28;19971;-71
2023/11/05 08:12:53;;;;;;;;;;;;;;;11.00;99.50;98526.25;5023005;28;19917;-70
2023/11/05 08:15:20;;;;;;;;;;;;;;;11.15;98.75;98514.25;5031692;28;19964;-70
2023/11/05 08:17:46;;;;;;;;;;;;;;;11.59;98.72;98507.69;5033554;28;20346;-69
2023/11/05 08:20:11;;;;;;;;;;;;;;;11.88;97.74;98490.66;5024809;28;19923;-69
2023/11/05 08:22:41;;;;;;;;;;;;;;;12.11;93.99;98499.22;5015215;28;19970;-69
2023/11/05 08:25:07;;;;;;;;;;;;;;;12.20;92.80;98491.38;5025629;28;19961;-70
2023/11/05 08:27:32;;;;;;;;;;;;;;;12.32;90.08;98476.38;5033841;28;19967;-70
2023/11/05 08:29:58;;;;;;;;;;;;;;;12.43;90.61;98464.56;5034867;28;20445;-69
2023/11/05 08:32:24;;;;;;;;;;;;;;;12.50;89.46;98473.13;5035003;28;19913;-67
2023/11/05 08:34:49;;;;;;;;;;;;;;;12.46;88.65;98470.25;5034968;28;19913;-70
2023/11/05 08:37:15;;;;;;;;;;;;;;;12.52;87.59;98469.94;5032932;28;20396;-67
2023/11/05 08:39:40;;;;;;;;;;;;;;;12.71;86.37;98464.28;5034928;28;19913;-68
2023/11/05 08:42:07;;;;;;;;;;;;;;;13.05;85.40;98456.03;5032739;28;20355;-67
2023/11/05 08:44:32;;;;;;;;;;;;;;;13.37;83.87;98448.44;5034812;28;19925;-67
2023/11/05 08:46:57;;;;;;;;;;;;;;;13.48;84.02;98450.28;5033227;28;20311;-67
2023/11/05 08:49:24;;;;;;;;;;;;;;;13.70;84.76;98438.50;5034691;28;19913;-67
2023/11/05 08:51:52;;;;;;;;;;;;;;;13.93;83.54;98437.59;5033160;28;20348;-68
2023/11/05 08:54:17;;;;;;;;;;;;;;;14.01;81.76;98439.31;5017969;28;20015;-67
2023/11/05 08:56:43;;;;;;;;;;;;;;;14.17;80.70;98448.31;5034294;28;19957;-67
2023/11/05 08:59:08;;;;;;;;;;;;;;;14.34;79.12;98434.81;5033293;28;20354;-67
2023/11/05 09:01:33;;;;;;;;;;;;;;;13.93;78.69;98431.97;5034563;28;19913;-68
2023/11/05 09:03:59;;;;;;;;;;;;;;;14.17;79.72;98431.44;5033119;28;19964;-68
2023/11/05 09:06:24;;;;;;;;;;;;;;;14.32;80.77;98420.34;5034332;28;19921;-68
2023/11/05 09:08:50;;;;;;;;;;;;;;;14.51;81.05;98408.06;5027208;28;19917;-67
2023/11/05 09:11:15;;;;;;;;;;;;;;;14.33;82.71;98391.00;5032970;28;20322;-68
2023/11/05 09:13:41;;;;;;;;;;;;;;;14.36;82.61;98389.44;5033758;28;19988;-68
2023/11/05 09:16:06;;;;;;;;;;;;;;;14.43;82.76;98384.69;5025913;28;20397;-70
2023/11/05 09:18:32;;;;;;;;;;;;;;;14.08;81.25;98387.97;5031586;28;19917;-69
2023/11/05 09:20:57;;;;;;;;;;;;;;;14.38;83.48;98376.63;5033145;28;19975;-69
2023/11/05 09:23:26;;;;;;;;;;;;;;;14.52;83.86;98375.91;5032590;28;19968;-69
2023/11/05 09:25:51;;;;;;;;;;;;;;;14.77;84.54;98368.91;5031342;28;19978;-72
2023/11/05 09:28:17;;;;;;;;;;;;;;;14.75;82.05;98358.03;5032328;28;19913;-73
2023/11/05 09:30:42;;;;;;;;;;;;;;;14.73;81.24;98352.81;5031227;28;19924;-73
2023/11/05 09:33:08;;;;;;;;;;;;;;;14.81;83.20;98355.66;5032834;28;20001;-69
2023/11/05 09:35:33;;;;;;;;;;;;;;;15.04;81.88;98363.06;5032891;28;19944;-69
2023/11/05 09:37:58;;;;;;;;;;;;;;;14.99;80.10;98362.25;5029334;28;20016;-69
2023/11/05 09:40:24;;;;;;;;;;;;;;;15.23;82.12;98356.34;5030579;28;20096;-74
2023/11/05 09:43:01;;;;;;;;;;;;;;;15.30;80.22;98356.41;5030276;28;19943;-74
2023/11/05 09:45:27;;;;;;;;;;;;;;;15.46;78.79;98353.25;5031189;28;19929;-73
2023/11/05 09:47:53;;;;;;;;;;;;;;;15.53;77.56;98358.91;5032365;28;19927;-76
2023/11/05 09:50:18;;;;;;;;;;;;;;;15.58;77.11;98352.91;5033432;28;19912;-72
2023/11/05 09:52:44;;;;;;;;;;;;;;;15.78;77.67;98343.31;5030763;28;19921;-73
2023/11/05 09:55:09;;;;;;;;;;;;;;;15.93;75.45;98352.66;5031773;28;20378;-68
2023/11/05 09:57:36;;;;;;;;;;;;;;;16.13;75.41;98348.25;5033190;28;19909;-67
2023/11/05 10:00:03;;;;;;;;;;;;;;;16.28;75.50;98345.44;5028063;28;19917;-69
2023/11/05 10:02:49;;;;;;;;;;;;;;;16.40;73.61;98342.22;5013205;28;19914;-69
2023/11/05 10:05:14;;;;;;;;;;;;;;;16.24;75.25;98327.72;5019527;28;19921;-69
2023/11/05 10:07:39;;;;;;;;;;;;;;;16.28;75.86;98325.69;5023676;28;19917;-68
2023/11/05 10:10:06;;;;;;;;;;;;;;;16.17;75.45;98322.06;5031957;28;20047;-68
2023/11/05 10:12:31;;;;;;;;;;;;;;;16.22;73.84;98330.13;5032894;28;19913;-68
2023/11/05 10:14:56;;;;;;;;;;;;;;;16.16;73.85;98332.53;5027896;28;19982;-69
2023/11/05 10:17:23;;;;;;;;;;;;;;;16.51;73.63;98318.84;5031985;28;20414;-69
2023/11/05 10:19:49;;;;;;;;;;;;;;;16.54;73.37;98318.84;5032931;28;19913;-69
2023/11/05 10:22:17;;;;;;;;;;;;;;;16.63;75.43;98321.25;5030690;28;19920;-69
2023/11/05 10:24:45;;;;;;;;;;;;;;;16.70;72.53;98326.91;5032370;28;19924;-69
2023/11/05 10:27:10;;;;;;;;;;;;;;;16.49;72.32;98309.97;5031108;28;19917;-69
2023/11/05 10:29:37;;;;;;;;;;;;;;;16.47;71.92;98318.88;5023017;28;19941;-69
2023/11/05 10:32:02;;;;;;;;;;;;;;;16.28;73.16;98314.41;5012832;28;20435;-69
2023/11/05 10:34:29;;;;;;;;;;;;;;;16.24;73.11;98305.16;5013398;28;19921;-68
2023/11/05 10:36:54;;;;;;;;;;;;;;;15.93;75.61;98296.25;5020638;28;19925;-70
2023/11/05 10:39:19;;;;;;;;;;;;;;;15.86;76.72;98283.72;5026877;28;19917;-67
2023/11/05 10:41:45;;;;;;;;;;;;;;;15.83;78.24;98275.25;5022528;28;20015;-70
2023/11/05 10:44:11;;;;;;;;;;;;;;;15.88;78.80;98290.97;5012580;28;19925;-69
2023/11/05 10:46:37;;;;;;;;;;;;;;;15.90;77.86;98280.13;5026845;28;19985;-70
2023/11/05 10:49:07;;;;;;;;;;;;;;;16.06;79.96;98272.09;5028987;28;19921;-69
2023/11/05 10:51:32;;;;;;;;;;;;;;;16.16;77.60;98269.66;5023526;28;19964;-70
2023/11/05 10:53:58;;;;;;;;;;;;;;;16.09;78.70;98270.47;5028628;28;19945;-70
2023/11/05 10:56:32;;;;;;;;;;;;;;;16.18;76.98;98262.44;5023577;28;19975;-69
2023/11/05 10:58:57;;;;;;;;;;;;;;;16.42;77.07;98260.81;5028478;28;19917;-70
2023/11/05 11:01:26;;;;;;;;;;;;;;;16.56;76.42;98253.53;5030550;28;19920;-70
2023/11/05 11:03:53;;;;;;;;;;;;;;;16.55;76.64;98238.63;5027784;28;19917;-69
2023/11/05 11:06:18;;;;;;;;;;;;;;;16.53;75.01;98243.03;5030945;28;19927;-70
2023/11/05 11:09:00;;;;;;;;;;;;;;;16.48;74.50;98244.28;5029779;28;20310;-69
2023/11/05 11:11:26;;;;;;;;;;;;;;;16.56;74.36;98245.06;5030610;28;20354;-69
2023/11/05 11:13:56;;;;;;;;;;;;;;;16.61;74.78;98238.22;5031683;28;19913;-69
2023/11/05 11:16:29;;;;;;;;;;;;;;;16.64;74.67;98238.19;5031717;28;19932;-69
2023/11/05 11:18:54;;;;;;;;;;;;;;;16.58;73.56;98228.53;5030164;28;19917;-69
2023/11/05 11:21:20;;;;;;;;;;;;;;;16.70;72.65;98214.00;5023015;28;20395;-69
2023/11/05 11:23:45;;;;;;;;;;;;;;;16.63;71.09;98185.78;5028374;28;20004;-69
2023/11/05 11:26:17;;;;;;;;;;;;;;;16.68;70.01;98182.53;5028284;28;19972;-69
2023/11/05 11:28:42;;;;;;;;;;;;;;;16.65;71.03;98182.56;5030490;28;20800;-69
2023/11/05 11:31:08;;;;;;;;;;;;;;;16.68;70.85;98170.44;5028905;28;20070;-69
2023/11/05 11:33:33;;;;;;;;;;;;;;;16.77;71.29;98162.34;5029965;28;19948;-69
2023/11/05 11:35:58;;;;;;;;;;;;;;;16.81;71.00;98162.34;5026792;28;19921;-68
2023/11/05 11:38:24;;;;;;;;;;;;;;;16.93;72.11;98158.25;5028936;28;19960;-69
2023/11/05 11:40:53;;;;;;;;;;;;;;;16.88;69.74;98153.81;5028835;28;19913;-68
2023/11/05 11:43:19;;;;;;;;;;;;;;;16.91;72.12;98157.84;5029971;28;19914;-69
2023/11/05 11:45:46;;;;;;;;;;;;;;;16.86;71.80;98147.78;5029982;28;19924;-69
2023/11/05 11:48:11;;;;;;;;;;;;;;;16.95;71.84;98145.31;5026214;28;19917;-72
2023/11/05 11:50:48;;;;;;;;;;;;;;;17.01;69.93;98153.38;5010890;28;19924;-68
2023/11/05 11:53:13;;;;;;;;;;;;;;;17.08;69.84;98153.38;5014295;28;20384;-69
2023/11/05 11:55:38;;;;;;;;;;;;;;;17.19;68.47;98145.63;5027438;28;19969;-67
2023/11/05 11:58:03;;;;;;;;;;;;;;;17.26;68.66;98139.97;5028995;28;19952;-66
2023/11/05 12:00:29;;;;;;;;;;;;;;;17.19;70.47;98137.16;5028718;28;19913;-66
2023/11/05 12:02:54;;;;;;;;;;;;;;;17.40;67.72;98136.22;5026270;28;19924;-67
2023/11/05 12:05:23;;;;;;;;;;;;;;;17.36;67.35;98135.44;5028945;28;19952;-68
2023/11/05 12:07:49;;;;;;;;;;;;;;;17.43;68.36;98134.59;5028268;28;19921;-68
2023/11/05 12:10:15;;;;;;;;;;;;;;;17.51;69.04;98124.84;5026252;28;19925;-67
2023/11/05 12:12:47;;;;;;;;;;;;;;;17.58;67.79;98129.66;5028625;28;20319;-68
2023/11/05 12:15:16;;;;;;;;;;;;;;;17.50;68.04;98125.25;5026987;28;19917;-67
2023/11/05 12:17:41;;;;;;;;;;;;;;;17.57;68.06;98119.56;5027823;28;20000;-65
2023/11/05 12:20:11;;;;;;;;;;;;;;;17.57;67.12;98127.22;5028399;28;20071;-68
2023/11/05 12:22:36;;;;;;;;;;;;;;;17.69;66.19;98129.56;5028286;28;19924;-68
2023/11/05 12:25:03;;;;;;;;;;;;;;;17.74;66.65;98129.13;5025269;28;19913;-68
2023/11/05 12:27:28;;;;;;;;;;;;;;;17.77;65.38;98135.94;5021808;28;19932;-68
2023/11/05 12:29:54;;;;;;;;;;;;;;;17.85;66.13;98142.34;5030002;28;19917;-68
2023/11/05 12:32:32;;;;;;;;;;;;;;;17.91;67.17;98135.03;5021366;28;19920;-68
2023/11/05 12:34:57;;;;;;;;;;;;;;;17.86;64.44;98147.59;5031856;28;20007;-68
2023/11/05 12:37:22;;;;;;;;;;;;;;;17.85;64.85;98156.47;5029545;28;20087;-68
2023/11/05 12:39:48;;;;;;;;;;;;;;;17.94;64.09;98159.66;5030100;28;19920;-68